« Back
NWS Peachtree City, Ga » Text Product » AHN Terminal Aerodrome Forecast


Printer-friendly Version
Current Version              Previous Versions:   1  2  3  4  5  6  7  8  9  

Terminal Aerodrome Forecast

384
FTUS42 KFFC 111720
TAFAHN
TAF
KAHN 111720Z 1118/1218 VRB03KT P6SM FEW050
     FM112300 VRB03KT P6SM SCT200
     FM120600 06004KT P6SM BKN040
     FM121400 06005KT P6SM BKN025=



USA.gov is the U.S. government's official web portal to all federal, state and local government web resources and services.